createdAt,value
2022-08-17T00:04:50.694Z,99224.28
2022-08-17T00:10:53.977Z,99171.81
2022-08-17T00:16:57.422Z,99189.50
2022-08-17T00:23:15.741Z,99241.13
2022-08-17T00:29:20.073Z,99216.28
2022-08-17T00:35:23.959Z,99239.19
2022-08-17T00:41:27.781Z,99228.41
2022-08-17T00:47:29.459Z,99233.41
2022-08-17T00:53:33.925Z,99181.78
2022-08-17T00:59:41.245Z,99238.06
2022-08-17T01:05:43.145Z,99231.47
2022-08-17T01:11:52.195Z,99245.28
2022-08-17T01:17:53.924Z,99240.84
2022-08-17T01:23:56.734Z,99243.09
2022-08-17T01:30:02.775Z,99245.56
2022-08-17T01:36:07.347Z,99241.41
2022-08-17T01:42:09.069Z,99251.91
2022-08-17T01:48:12.977Z,99235.63
2022-08-17T01:54:18.722Z,99218.78
2022-08-17T02:00:20.533Z,99206.91
2022-08-17T02:06:27.203Z,99242.25
2022-08-17T02:12:38.852Z,99239.78
2022-08-17T02:18:41.728Z,99206.66
2022-08-17T02:24:59.635Z,99207.75
2022-08-17T02:31:09.368Z,99229.81
2022-08-17T02:37:11.200Z,99240.31
2022-08-17T02:43:13.873Z,99245.00
2022-08-17T02:49:15.957Z,99215.22
2022-08-17T02:55:24.348Z,99233.13
2022-08-17T03:01:26.142Z,99243.94
2022-08-17T03:07:27.935Z,99249.16
2022-08-17T03:13:30.936Z,99261.91
2022-08-17T03:19:32.914Z,99270.19
2022-08-17T03:25:38.001Z,99264.38
2022-08-17T03:31:40.645Z,99245.03
2022-08-17T03:37:42.736Z,99248.66
2022-08-17T03:43:44.486Z,99240.59
2022-08-17T03:50:04.660Z,99268.50
2022-08-17T03:56:25.007Z,99251.41
2022-08-17T04:02:34.305Z,99252.50
2022-08-17T04:08:36.063Z,99262.97
2022-08-17T04:14:51.405Z,99294.50
2022-08-17T04:20:54.375Z,99289.53
2022-08-17T04:26:56.108Z,99294.75
2022-08-17T04:33:10.846Z,99303.91
2022-08-17T04:39:12.822Z,99309.09
2022-08-17T04:45:14.605Z,99283.38
2022-08-17T04:51:28.125Z,99300.56
2022-08-17T04:57:29.848Z,99298.06
2022-08-17T05:03:42.175Z,99303.03
2022-08-17T05:09:44.098Z,99302.50
2022-08-17T05:15:48.522Z,99280.69
2022-08-17T05:21:51.988Z,99250.28
2022-08-17T05:27:54.763Z,99299.94
2022-08-17T05:33:56.824Z,99301.13
2022-08-17T05:39:58.739Z,99232.59
2022-08-17T05:46:23.470Z,99309.66
2022-08-17T05:52:44.198Z,99315.19
2022-08-17T05:59:06.584Z,99263.53
2022-08-17T06:05:22.697Z,99311.81
2022-08-17T06:11:42.680Z,99325.91
2022-08-17T06:17:44.706Z,99286.72
2022-08-17T06:23:56.991Z,99321.50
2022-08-17T06:30:11.648Z,99330.34
2022-08-17T06:36:22.476Z,99322.59
2022-08-17T06:43:02.172Z,99297.75
2022-08-17T06:49:28.736Z,99311.81
2022-08-17T06:55:38.338Z,99328.63
2022-08-17T07:01:42.287Z,99304.09
2022-08-17T07:08:29.675Z,99324.50
2022-08-17T07:15:08.493Z,99340.25
2022-08-17T07:21:29.443Z,99333.34
2022-08-17T07:27:41.066Z,99326.16
2022-08-17T07:34:00.859Z,99338.84
2022-08-17T07:40:29.455Z,99349.63
2022-08-17T07:47:05.739Z,99351.53
2022-08-17T07:53:23.309Z,99314.28
2022-08-17T07:59:34.611Z,99348.78
2022-08-17T08:05:51.725Z,99331.94
2022-08-17T08:11:53.895Z,99288.84
2022-08-17T08:17:59.397Z,99353.44
2022-08-17T08:24:32.241Z,99352.34
2022-08-17T08:30:41.561Z,99302.63
2022-08-17T08:37:30.361Z,99313.06
2022-08-17T08:43:54.754Z,99348.41
2022-08-17T08:50:04.679Z,99334.06
2022-08-17T08:56:09.909Z,99340.16
2022-08-17T09:02:34.942Z,99335.97
2022-08-17T09:08:50.668Z,99302.56
2022-08-17T09:15:12.348Z,99361.69
2022-08-17T09:21:21.747Z,99363.03
2022-08-17T09:27:33.563Z,99358.38
2022-08-17T09:33:43.132Z,99361.97
2022-08-17T09:39:57.164Z,99367.75
2022-08-17T09:46:04.110Z,99307.03
2022-08-17T09:52:22.441Z,99369.44
2022-08-17T09:58:44.517Z,99352.91
2022-08-17T10:05:13.891Z,99366.44
2022-08-17T10:12:03.417Z,99373.28
2022-08-17T10:18:31.848Z,99297.09
2022-08-17T10:25:23.508Z,99304.78
2022-08-17T10:31:36.341Z,99344.22
2022-08-17T10:38:00.505Z,99348.88
2022-08-17T10:44:39.516Z,99348.91
2022-08-17T10:50:49.675Z,99345.00
2022-08-17T10:56:57.198Z,99349.50
2022-08-17T11:02:59.593Z,99326.00
2022-08-17T11:09:20.077Z,99335.66
2022-08-17T11:15:51.611Z,99272.44
2022-08-17T11:22:33.328Z,99284.31
2022-08-17T11:28:48.816Z,99343.91
2022-08-17T11:35:21.230Z,99342.50
2022-08-17T11:41:49.814Z,99339.75
2022-08-17T11:48:28.363Z,99328.91
2022-08-17T11:54:33.874Z,99327.78
2022-08-17T12:00:45.536Z,99338.88
2022-08-17T12:07:30.331Z,99335.81
2022-08-17T12:13:52.206Z,99307.38
2022-08-17T12:19:55.637Z,99330.84
2022-08-17T12:26:20.974Z,99311.16
2022-08-17T12:32:27.298Z,99285.88
2022-08-17T12:38:34.938Z,99269.84
2022-08-17T12:44:46.269Z,99306.25
2022-08-17T12:50:59.009Z,99329.97
2022-08-17T12:57:06.328Z,99331.38
2022-08-17T13:03:23.217Z,99334.69
2022-08-17T13:09:36.108Z,99338.03
2022-08-17T13:15:51.570Z,99321.72
2022-08-17T13:21:59.694Z,99337.22
2022-08-17T13:28:01.595Z,99300.19
2022-08-17T13:34:27.066Z,99350.19
2022-08-17T13:40:37.912Z,99341.06
2022-08-17T13:46:39.722Z,99309.09
2022-08-17T13:52:44.108Z,99342.19
2022-08-17T13:59:13.450Z,99337.69
2022-08-17T14:05:15.241Z,99314.53
2022-08-17T14:11:18.585Z,99347.91
2022-08-17T14:17:20.488Z,99341.84
2022-08-17T14:23:22.404Z,99350.72
2022-08-17T14:29:27.948Z,99324.25
2022-08-17T14:35:30.251Z,99362.09
2022-08-17T14:41:31.972Z,99354.88
2022-08-17T14:47:35.284Z,99356.00
2022-08-17T14:53:37.830Z,99370.38
2022-08-17T14:59:39.838Z,99351.63
2022-08-17T15:05:41.739Z,99356.88
2022-08-17T15:11:43.702Z,99367.34
2022-08-17T15:17:46.227Z,99364.56
2022-08-17T15:23:48.205Z,99358.84
2022-08-17T15:29:50.571Z,99358.59
2022-08-17T15:35:53.749Z,99378.22
2022-08-17T15:41:58.481Z,99347.28
2022-08-17T15:48:01.031Z,99361.41
2022-08-17T15:54:18.734Z,99376.28
2022-08-17T16:00:24.839Z,99370.00
2022-08-17T16:06:30.374Z,99362.56
2022-08-17T16:12:33.374Z,99371.16
2022-08-17T16:18:36.782Z,99401.53
2022-08-17T16:24:45.945Z,99400.47
2022-08-17T16:30:59.342Z,99401.03
2022-08-17T16:37:01.592Z,99370.09
2022-08-17T16:43:10.637Z,99429.81
2022-08-17T16:49:35.728Z,99424.03
2022-08-17T16:55:35.896Z,99449.22
2022-08-17T17:01:41.874Z,99436.47
2022-08-17T17:07:55.614Z,99447.81
2022-08-17T17:14:02.163Z,99456.13
2022-08-17T17:20:25.013Z,99458.03
2022-08-17T17:26:45.266Z,99469.69
2022-08-17T17:32:59.655Z,99471.88
2022-08-17T17:39:15.987Z,99474.13
2022-08-17T17:45:23.335Z,99471.34
2022-08-17T17:52:05.295Z,99466.91
2022-08-17T17:58:06.493Z,99482.94
2022-08-17T18:04:20.670Z,99494.59
2022-08-17T18:10:33.841Z,99468.03
2022-08-17T18:16:35.578Z,99451.47
2022-08-17T18:22:37.334Z,99443.41
2022-08-17T18:28:44.064Z,99482.94
2022-08-17T18:34:48.982Z,99486.28
2022-08-17T18:41:01.839Z,99494.59
2022-08-17T18:47:20.497Z,99493.75
2022-08-17T18:53:30.340Z,99504.84
2022-08-17T18:59:48.321Z,99498.47
2022-08-17T19:05:56.125Z,99484.09
2022-08-17T19:11:58.264Z,99489.34
2022-08-17T19:18:15.277Z,99463.09
2022-08-17T19:24:20.742Z,99471.38
2022-08-17T19:30:22.824Z,99464.19
2022-08-17T19:36:39.900Z,99476.34
2022-08-17T19:42:53.823Z,99472.78
2022-08-17T19:49:03.356Z,99478.00
2022-08-17T19:55:19.833Z,99476.63
2022-08-17T20:01:47.976Z,99481.34
2022-08-17T20:08:12.344Z,99448.44
2022-08-17T20:14:19.832Z,99484.91
2022-08-17T20:20:34.915Z,99489.91
2022-08-17T20:26:57.987Z,99484.91
2022-08-17T20:33:02.677Z,99503.19
2022-08-17T20:39:04.469Z,99477.16
2022-08-17T20:45:21.249Z,99497.94
2022-08-17T20:51:31.579Z,99494.34
2022-08-17T20:57:33.394Z,99499.59
2022-08-17T21:03:49.113Z,99499.28
2022-08-17T21:09:52.904Z,99484.06
2022-08-17T21:16:32.237Z,99510.69
2022-08-17T21:23:13.841Z,99457.00
2022-08-17T21:29:31.309Z,99468.88
2022-08-17T21:36:03.911Z,99507.59
2022-08-17T21:42:12.266Z,99519.47
2022-08-17T21:48:16.539Z,99514.78
2022-08-17T21:54:31.947Z,99515.31
2022-08-17T22:00:36.804Z,99510.09
2022-08-17T22:06:56.634Z,99520.03
2022-08-17T22:13:24.331Z,99518.94
2022-08-17T22:19:31.615Z,99505.13
2022-08-17T22:25:56.376Z,99518.09
2022-08-17T22:31:58.156Z,99505.63
2022-08-17T22:38:35.530Z,99520.03
2022-08-17T22:44:46.990Z,99493.47
2022-08-17T22:51:02.409Z,99528.88
2022-08-17T22:57:23.991Z,99424.31
2022-08-17T23:03:28.123Z,99482.41
2022-08-17T23:09:30.085Z,99526.13
2022-08-17T23:15:33.346Z,99505.09
2022-08-17T23:21:37.102Z,99541.59
2022-08-17T23:27:39.070Z,99471.06
2022-08-17T23:33:41.501Z,99529.44
2022-08-17T23:39:45.199Z,99527.50
2022-08-17T23:45:47.317Z,99511.44
2022-08-17T23:51:49.506Z,99482.94
2022-08-17T23:57:51.479Z,99520.56
